Time;durP1;ratioP1;P1;durP2;ratioP2;P2;SDS_P1;SDS_P2;PMS_P1;PMS_P2;Temp;Humidity;BMP_temperature;BMP_pressure;BME280_temperature;BME280_humidity;BME280_pressure;Samples;Min_cycle;Max_cycle;Signal;HPM_P1;HPM_P2
2022/05/02 00:00:14;;;;;;;9.90;8.15;;;8.20;93.50;;;;;;4956053;28;92460;-70
2022/05/02 00:02:41;;;;;;;10.95;8.82;;;8.20;93.60;;;;;;4955854;28;92450;-70
2022/05/02 00:05:09;;;;;;;12.02;8.52;;;8.20;93.70;;;;;;4970931;28;93250;-70
2022/05/02 00:07:36;;;;;;;10.85;8.13;;;8.20;93.70;;;;;;4955667;28;92751;-70
2022/05/02 00:10:05;;;;;;;10.50;8.18;;;8.10;93.70;;;;;;4958573;28;91638;-70
2022/05/02 00:12:34;;;;;;;11.45;8.90;;;8.10;93.80;;;;;;4959273;28;92420;-70
2022/05/02 00:15:05;;;;;;;11.60;8.25;;;8.10;93.80;;;;;;4957312;28;96146;-70
2022/05/02 00:20:17;;;;;;;9.25;8.35;;;8.00;93.90;;;;;;4959677;28;92429;-70
2022/05/02 00:22:47;;;;;;;10.55;8.68;;;8.00;93.90;;;;;;4958936;28;92469;-70
2022/05/02 00:25:14;;;;;;;11.07;8.93;;;8.00;94.10;;;;;;4957696;28;95792;-70
2022/05/02 00:27:42;;;;;;;10.75;8.80;;;8.00;94.10;;;;;;4958552;28;100850;-70
2022/05/02 00:30:11;;;;;;;10.25;8.57;;;8.00;94.10;;;;;;4974293;28;92555;-70
2022/05/02 00:32:39;;;;;;;9.50;8.48;;;8.00;94.20;;;;;;4957615;28;92470;-70
2022/05/02 00:35:07;;;;;;;11.52;8.45;;;7.90;94.20;;;;;;4959127;28;92525;-70
2022/05/02 00:37:34;;;;;;;11.35;8.60;;;7.90;94.30;;;;;;4957743;28;92583;-70
2022/05/02 00:40:01;;;;;;;11.48;9.13;;;7.90;94.20;;;;;;4973999;28;92812;-70
2022/05/02 00:42:28;;;;;;;10.20;9.13;;;7.80;94.20;;;;;;4957992;28;94745;-70
2022/05/02 00:44:55;;;;;;;14.40;9.50;;;7.80;94.20;;;;;;4958572;28;93228;-70
2022/05/02 00:47:23;;;;;;;13.68;7.95;;;7.80;94.30;;;;;;4957321;28;95547;-70
2022/05/02 00:49:50;;;;;;;9.80;8.70;;;7.70;94.30;;;;;;4957246;28;92446;-70
2022/05/02 00:52:18;;;;;;;11.23;9.18;;;7.70;94.50;;;;;;4974016;28;92456;-70
2022/05/02 00:54:46;;;;;;;12.43;8.95;;;7.70;94.50;;;;;;4958482;28;93270;-70
2022/05/02 00:57:15;;;;;;;12.13;9.50;;;7.70;94.60;;;;;;4958657;28;93088;-70
2022/05/02 00:59:43;;;;;;;13.57;9.68;;;7.70;94.60;;;;;;4959116;28;92064;-70
2022/05/02 01:02:12;;;;;;;10.38;8.93;;;7.70;94.70;;;;;;4956975;28;92669;-70
2022/05/02 01:04:39;;;;;;;13.32;9.95;;;7.70;94.70;;;;;;4973432;28;93193;-70
2022/05/02 01:07:10;;;;;;;12.10;9.77;;;7.60;94.70;;;;;;4955991;28;95790;-70
2022/05/02 01:09:39;;;;;;;13.95;10.18;;;7.60;94.80;;;;;;4958817;28;92526;-70
2022/05/02 01:12:11;;;;;;;11.57;10.07;;;7.60;94.80;;;;;;4958210;28;92859;-70
2022/05/02 01:14:38;;;;;;;12.52;10.35;;;7.60;94.90;;;;;;4959960;28;93258;-70
2022/05/02 01:17:06;;;;;;;11.45;9.75;;;7.60;94.90;;;;;;4977209;28;93895;-70
2022/05/02 01:19:34;;;;;;;10.75;9.68;;;7.60;94.90;;;;;;4960730;28;92422;-70
2022/05/02 01:22:03;;;;;;;12.63;10.05;;;7.60;94.90;;;;;;4977833;28;92434;-70
2022/05/02 01:24:38;;;;;;;11.60;9.80;;;7.60;94.90;;;;;;4976038;28;95221;-70
2022/05/02 01:27:08;;;;;;;11.98;9.75;;;7.60;94.90;;;;;;4977270;28;92393;-70
2022/05/02 01:29:36;;;;;;;13.15;10.43;;;7.60;95.10;;;;;;4960030;28;92494;-70
2022/05/02 01:32:08;;;;;;;10.77;9.68;;;7.50;95.20;;;;;;4974485;28;95287;-70
2022/05/02 01:34:40;;;;;;;12.73;10.35;;;7.50;95.20;;;;;;4976640;28;92979;-70
2022/05/02 01:37:14;;;;;;;11.25;9.55;;;7.50;95.20;;;;;;4975334;28;95985;-70
2022/05/02 01:39:42;;;;;;;12.55;10.02;;;7.50;95.30;;;;;;4960195;28;92511;-70
2022/05/02 01:42:11;;;;;;;14.55;9.60;;;7.40;95.30;;;;;;4975768;28;92523;-70
2022/05/02 01:44:39;;;;;;;12.73;9.65;;;7.40;95.40;;;;;;4977284;28;93390;-70
2022/05/02 01:47:09;;;;;;;15.02;11.23;;;7.40;95.40;;;;;;4959776;28;93171;-70
2022/05/02 01:49:36;;;;;;;13.82;10.82;;;7.30;95.50;;;;;;4959826;28;91773;-70
2022/05/02 01:52:04;;;;;;;12.30;10.98;;;7.20;95.60;;;;;;4958975;28;93045;-70
2022/05/02 01:54:31;;;;;;;13.98;11.48;;;7.20;95.60;;;;;;4958962;28;95882;-70
2022/05/02 01:56:58;;;;;;;16.60;11.45;;;7.20;95.70;;;;;;4973742;28;95681;-70
2022/05/02 01:59:25;;;;;;;15.88;12.02;;;7.20;95.70;;;;;;4975126;28;92482;-70
2022/05/02 02:01:52;;;;;;;16.00;11.20;;;7.20;95.80;;;;;;4976635;28;92961;-70
2022/05/02 02:07:05;;;;;;;13.57;11.00;;;7.20;95.80;;;;;;4976445;28;93075;-70
2022/05/02 02:09:32;;;;;;;12.25;10.43;;;7.10;95.90;;;;;;4976663;28;92352;-70
2022/05/02 02:11:59;;;;;;;13.98;10.85;;;7.10;95.90;;;;;;4958770;28;92514;-70
2022/05/02 02:14:26;;;;;;;15.57;11.57;;;7.10;95.90;;;;;;4958729;28;99800;-70
2022/05/02 02:16:53;;;;;;;18.52;11.95;;;7.10;96.00;;;;;;4958318;28;95102;-70
2022/05/02 02:19:20;;;;;;;16.80;11.90;;;7.10;96.00;;;;;;4976383;28;92440;-69
2022/05/02 02:21:47;;;;;;;16.23;11.35;;;7.00;96.20;;;;;;4975364;28;94716;-70
2022/05/02 02:24:14;;;;;;;13.55;11.27;;;7.00;96.00;;;;;;4974629;28;93188;-70
2022/05/02 02:26:41;;;;;;;14.75;11.52;;;7.00;96.10;;;;;;4974896;28;95675;-70
2022/05/02 02:29:08;;;;;;;12.75;11.20;;;7.00;96.10;;;;;;4975942;28;92445;-70
2022/05/02 02:31:35;;;;;;;14.23;11.77;;;7.00;96.10;;;;;;4958097;28;92571;-70
2022/05/02 02:34:02;;;;;;;14.82;11.00;;;7.00;96.10;;;;;;4975761;28;92973;-69
2022/05/02 02:36:29;;;;;;;15.50;11.77;;;6.90;96.10;;;;;;4958678;28;92431;-69
2022/05/02 02:38:56;;;;;;;16.05;12.23;;;6.90;96.10;;;;;;4975007;28;91737;-69
2022/05/02 02:41:23;;;;;;;16.90;12.15;;;6.90;96.30;;;;;;4958287;28;92535;-70
2022/05/02 02:43:50;;;;;;;15.95;11.48;;;6.90;96.30;;;;;;4958124;28;95789;-70
2022/05/02 02:46:17;;;;;;;15.68;12.35;;;6.80;96.30;;;;;;4974559;28;94776;-70
2022/05/02 02:48:44;;;;;;;13.55;11.65;;;6.80;96.30;;;;;;4958258;28;92551;-69
2022/05/02 02:51:11;;;;;;;16.33;11.68;;;6.80;96.30;;;;;;4974425;28;92494;-70
2022/05/02 02:53:38;;;;;;;14.23;12.18;;;6.70;96.30;;;;;;4958218;28;94422;-70
2022/05/02 02:56:05;;;;;;;13.95;11.70;;;6.70;96.30;;;;;;4974229;28;95743;-70
2022/05/02 02:58:32;;;;;;;15.35;12.52;;;6.70;96.30;;;;;;4975933;28;92463;-70
2022/05/02 03:00:59;;;;;;;16.20;11.68;;;6.70;96.30;;;;;;4974524;28;92463;-69
2022/05/02 03:03:27;;;;;;;16.30;11.48;;;6.60;96.40;;;;;;4958407;28;97658;-69
2022/05/02 03:06:04;;;;;;;13.77;11.05;;;6.60;96.40;;;;;;4975374;28;92420;-70
2022/05/02 03:08:34;;;;;;;12.65;10.82;;;6.60;96.40;;;;;;4957991;28;92606;-70
2022/05/02 03:11:01;;;;;;;13.63;11.40;;;6.60;96.50;;;;;;4974687;28;94883;-70
2022/05/02 03:13:29;;;;;;;16.55;11.70;;;6.60;96.50;;;;;;4957832;28;96148;-70
2022/05/02 03:15:56;;;;;;;15.57;12.10;;;6.50;96.40;;;;;;4975289;28;93076;-69
2022/05/02 03:18:23;;;;;;;15.55;11.98;;;6.50;96.50;;;;;;4974264;28;92602;-69
2022/05/02 03:20:51;;;;;;;15.63;11.65;;;6.50;96.50;;;;;;4974261;28;92492;-69
2022/05/02 03:23:18;;;;;;;18.23;13.60;;;6.50;96.60;;;;;;4975352;28;93203;-69
2022/05/02 03:25:45;;;;;;;17.15;12.27;;;6.50;96.60;;;;;;4957791;28;92771;-70
2022/05/02 03:28:13;;;;;;;15.25;11.82;;;6.40;96.60;;;;;;4974320;28;91753;-70
2022/05/02 03:30:39;;;;;;;15.40;11.75;;;6.40;96.60;;;;;;4957793;28;92478;-70
2022/05/02 03:33:06;;;;;;;18.20;12.95;;;6.40;96.70;;;;;;4975124;28;93325;-70
2022/05/02 03:35:33;;;;;;;15.00;12.35;;;6.40;96.70;;;;;;4972898;28;94914;-69
2022/05/02 03:38:01;;;;;;;14.02;11.48;;;6.30;96.70;;;;;;4975335;28;92413;-70
2022/05/02 03:40:27;;;;;;;13.77;11.38;;;6.30;96.70;;;;;;4975630;28;92478;-70
2022/05/02 03:42:54;;;;;;;14.98;12.55;;;6.30;96.70;;;;;;4973637;28;93202;-70
2022/05/02 03:45:21;;;;;;;15.75;12.13;;;6.30;96.70;;;;;;4956130;28;102846;-70
2022/05/02 03:47:48;;;;;;;14.27;10.93;;;6.20;96.70;;;;;;4957510;28;92577;-70
2022/05/02 03:50:16;;;;;;;14.70;11.60;;;6.20;96.80;;;;;;4957825;28;92936;-70
2022/05/02 03:52:43;;;;;;;15.75;11.82;;;6.20;96.80;;;;;;4973891;28;93109;-70
2022/05/02 03:55:11;;;;;;;14.13;11.50;;;6.10;96.80;;;;;;4957117;28;94821;-70
2022/05/02 03:57:37;;;;;;;15.27;11.65;;;6.10;96.90;;;;;;4974061;28;92848;-69
2022/05/02 04:00:05;;;;;;;14.45;12.52;;;6.00;97.00;;;;;;4972432;28;94866;-70
2022/05/02 04:02:37;;;;;;;17.75;12.77;;;6.00;97.00;;;;;;4973715;28;92862;-70
2022/05/02 04:05:05;;;;;;;16.05;12.00;;;6.00;97.00;;;;;;4973255;28;95839;-70
2022/05/02 04:07:33;;;;;;;12.98;10.95;;;6.00;97.00;;;;;;4957082;28;92457;-69
2022/05/02 04:10:00;;;;;;;14.60;11.82;;;6.00;97.00;;;;;;4974967;28;92513;-70
2022/05/02 04:12:34;;;;;;;13.68;12.07;;;5.90;97.00;;;;;;4956715;28;95740;-70
2022/05/02 04:15:02;;;;;;;14.00;11.18;;;6.00;97.10;;;;;;4974642;28;93052;-70
2022/05/02 04:17:29;;;;;;;16.25;12.65;;;6.00;97.10;;;;;;4957799;28;91797;-69
2022/05/02 04:19:56;;;;;;;16.25;12.77;;;6.00;97.20;;;;;;4973413;28;92480;-69
2022/05/02 04:22:23;;;;;;;15.82;12.90;;;6.00;97.20;;;;;;4974421;28;92464;-70
2022/05/02 04:24:50;;;;;;;14.18;12.20;;;6.00;97.20;;;;;;4972146;28;94811;-69
2022/05/02 04:27:17;;;;;;;18.20;13.95;;;6.00;97.20;;;;;;4974846;28;92679;-70
2022/05/02 04:29:44;;;;;;;15.30;11.90;;;6.00;97.20;;;;;;4974844;28;92446;-69
2022/05/02 04:32:11;;;;;;;13.43;11.43;;;6.10;97.10;;;;;;4973169;28;93252;-70
2022/05/02 04:34:38;;;;;;;14.82;12.02;;;6.20;97.10;;;;;;4957166;28;92747;-70
2022/05/02 04:37:05;;;;;;;14.85;11.43;;;6.20;97.00;;;;;;4957092;28;92849;-70
2022/05/02 04:39:32;;;;;;;12.95;10.32;;;6.30;96.90;;;;;;4974628;28;92477;-70
2022/05/02 04:41:59;;;;;;;12.00;10.68;;;6.50;97.00;;;;;;4940831;28;95067;-70
2022/05/02 04:44:26;;;;;;;11.65;10.43;;;6.70;96.90;;;;;;4955818;28;110598;-70
2022/05/02 04:46:52;;;;;;;12.05;10.05;;;6.90;96.60;;;;;;4956824;28;92772;-70
2022/05/02 04:49:19;;;;;;;12.18;10.30;;;7.20;96.30;;;;;;4971979;28;95645;-70
2022/05/02 04:51:46;;;;;;;9.82;8.93;;;7.40;95.80;;;;;;4974530;28;93277;-70
2022/05/02 04:54:13;;;;;;;10.52;9.25;;;7.50;95.50;;;;;;4973406;28;95489;-70
2022/05/02 04:56:40;;;;;;;12.18;10.02;;;7.70;95.40;;;;;;4976869;28;92527;-70
2022/05/02 04:59:07;;;;;;;12.90;10.93;;;7.80;95.10;;;;;;4977890;28;92458;-69
2022/05/02 05:01:34;;;;;;;11.98;10.30;;;8.00;94.80;;;;;;4959445;28;95874;-70
2022/05/02 05:04:01;;;;;;;11.40;10.20;;;8.10;94.80;;;;;;4959608;28;94332;-70
2022/05/02 05:06:28;;;;;;;10.98;9.88;;;8.20;94.60;;;;;;4977262;28;91775;-70
2022/05/02 05:08:55;;;;;;;12.30;10.48;;;8.20;94.50;;;;;;4978188;28;92537;-70
2022/05/02 05:11:55;;;;;;;12.07;10.68;;;8.20;94.60;;;;;;4977402;28;93175;-70
2022/05/02 05:18:09;;;;;;;11.60;9.90;;;8.60;94.40;;;;;;4960347;28;92539;-70
2022/05/02 05:20:36;;;;;;;10.68;9.60;;;9.00;94.20;;;;;;4977931;28;92507;-70
2022/05/02 05:23:21;;;;;;;11.95;10.00;;;9.40;93.80;;;;;;4976266;28;95954;-70
2022/05/02 05:26:02;;;;;;;10.77;9.38;;;9.80;93.60;;;;;;4977410;28;93127;-70
2022/05/02 05:29:00;;;;;;;10.50;9.55;;;10.40;92.50;;;;;;4977875;28;92914;-70
2022/05/02 05:31:42;;;;;;;9.63;8.68;;;10.90;91.90;;;;;;4959538;28;92638;-70
2022/05/02 05:35:05;;;;;;;10.70;9.55;;;11.30;92.00;;;;;;4976429;28;95071;-70
2022/05/02 05:37:38;;;;;;;10.32;9.18;;;12.00;90.50;;;;;;4922909;28;94749;-70
2022/05/02 05:40:10;;;;;;;10.10;8.77;;;12.40;89.60;;;;;;4976525;28;92586;-70
2022/05/02 05:43:03;;;;;;;9.93;9.02;;;12.60;87.90;;;;;;4976397;28;94922;-70
2022/05/02 05:46:09;;;;;;;9.13;8.25;;;13.00;88.10;;;;;;4976131;28;93207;-70
2022/05/02 05:48:45;;;;;;;13.57;9.43;;;13.40;85.90;;;;;;4973954;28;93035;-70
2022/05/02 05:51:17;;;;;;;9.77;8.77;;;13.40;84.70;;;;;;4959818;28;92695;-70
2022/05/02 05:54:06;;;;;;;10.57;9.63;;;13.60;84.00;;;;;;4977658;28;92479;-70
2022/05/02 05:56:54;;;;;;;10.25;9.25;;;13.50;83.30;;;;;;4977059;28;93294;-70
2022/05/02 05:59:29;;;;;;;10.50;9.40;;;13.40;84.20;;;;;;4975554;28;95678;-70
2022/05/02 06:02:10;;;;;;;10.40;9.30;;;13.50;84.50;;;;;;4976414;28;91694;-70
2022/05/02 06:04:41;;;;;;;10.32;9.40;;;13.50;84.40;;;;;;4975520;28;92991;-70
2022/05/02 06:07:09;;;;;;;9.50;8.68;;;13.70;84.60;;;;;;4974504;28;95964;-70
2022/05/02 06:09:38;;;;;;;11.05;10.05;;;13.80;84.30;;;;;;4975715;28;94831;-70
2022/05/02 06:12:06;;;;;;;10.95;10.05;;;14.50;83.50;;;;;;4976372;28;92428;-70
2022/05/02 06:18:27;;;;;;;10.68;9.65;;;15.20;81.50;;;;;;4974350;28;92583;-70
2022/05/02 06:20:14;;;;;;;11.63;10.48;;;16.00;77.40;;;;;;4959010;28;95649;-70
2022/05/02 06:22:42;;;;;;;11.13;10.02;;;16.20;77.40;;;;;;4958962;28;92535;-71
2022/05/02 06:25:10;;;;;;;13.30;11.90;;;16.30;76.50;;;;;;4974310;28;100036;-71
2022/05/02 06:27:41;;;;;;;11.68;10.57;;;16.20;76.70;;;;;;4958192;28;93718;-71
2022/05/02 06:30:15;;;;;;;13.45;12.15;;;16.00;77.10;;;;;;4976398;28;92484;-70
2022/05/02 06:32:56;;;;;;;12.40;11.13;;;15.80;77.70;;;;;;4976210;28;92474;-70
2022/05/02 06:35:46;;;;;;;12.07;10.90;;;15.50;78.00;;;;;;4957159;28;94847;-71
2022/05/02 06:38:54;;;;;;;12.10;10.90;;;15.30;79.30;;;;;;4958117;28;95772;-70
2022/05/02 06:41:56;;;;;;;11.70;10.60;;;15.30;79.70;;;;;;4954373;28;93071;-70
2022/05/02 06:44:42;;;;;;;11.18;10.07;;;15.10;79.30;;;;;;4976162;28;92520;-70
2022/05/02 06:47:18;;;;;;;10.40;9.15;;;15.00;79.90;;;;;;4958838;28;92542;-70
2022/05/02 06:49:50;;;;;;;10.52;9.52;;;14.90;79.70;;;;;;4976446;28;92462;-70
2022/05/02 06:52:24;;;;;;;11.43;10.20;;;14.80;80.30;;;;;;4976668;28;93109;-70
2022/05/02 06:55:05;;;;;;;10.68;9.60;;;14.70;80.10;;;;;;4976390;28;91741;-70
2022/05/02 06:57:52;;;;;;;9.77;8.13;;;14.80;80.00;;;;;;4974840;28;92433;-70
2022/05/02 07:00:20;;;;;;;10.32;9.30;;;14.80;79.10;;;;;;4976534;28;93196;-70
2022/05/02 07:02:59;;;;;;;10.35;9.35;;;14.90;79.70;;;;;;4973290;28;95518;-70
2022/05/02 07:05:27;;;;;;;9.88;8.65;;;15.00;78.80;;;;;;4975291;28;92457;-70
2022/05/02 07:08:01;;;;;;;9.55;8.65;;;15.10;78.00;;;;;;4976376;28;92447;-70
2022/05/02 07:10:32;;;;;;;;;;;15.20;78.50;;;;;;4975163;28;97904;-70
2022/05/02 07:13:23;;;;;;;12.82;9.25;;;14.90;78.00;;;;;;4977492;28;92607;-70
2022/05/02 07:16:00;;;;;;;9.65;8.68;;;15.10;79.10;;;;;;4975688;28;93140;-70
2022/05/02 07:18:27;;;;;;;8.90;8.05;;;15.30;78.60;;;;;;4976312;28;92497;-70
2022/05/02 07:21:23;;;;;;;11.05;9.02;;;15.60;78.30;;;;;;4976554;28;92873;-70
2022/05/02 07:23:52;;;;;;;9.30;8.50;;;15.70;77.80;;;;;;4974189;28;94895;-70
2022/05/02 07:26:29;;;;;;;9.77;8.60;;;15.80;78.20;;;;;;4974377;28;92607;-71
2022/05/02 07:29:04;;;;;;;9.88;7.82;;;15.80;78.10;;;;;;4975087;28;94801;-71
2022/05/02 07:31:32;;;;;;;10.57;8.10;;;15.90;78.20;;;;;;4958041;28;93870;-71
2022/05/02 07:34:02;;;;;;;10.75;8.63;;;15.90;77.70;;;;;;4975829;28;93024;-71
2022/05/02 07:36:31;;;;;;;8.43;7.72;;;16.00;78.00;;;;;;4958091;28;92566;-71
2022/05/02 07:39:07;;;;;;;9.70;7.45;;;16.10;77.00;;;;;;4975772;28;92442;-71
2022/05/02 07:41:35;;;;;;;10.50;9.50;;;16.30;75.90;;;;;;4974309;28;93308;-71
2022/05/02 07:44:04;;;;;;;10.52;7.43;;;16.40;76.00;;;;;;4974417;28;93457;-70
2022/05/02 07:46:35;;;;;;;10.82;9.23;;;16.80;75.60;;;;;;4958653;28;91784;-70
2022/05/02 07:49:04;;;;;;;8.60;7.85;;;17.20;73.90;;;;;;4974265;28;92511;-71
2022/05/02 07:51:32;;;;;;;9.30;8.50;;;17.30;73.50;;;;;;4957729;28;104098;-70
2022/05/02 07:54:01;;;;;;;9.07;8.27;;;17.70;72.10;;;;;;4956477;28;95747;-71
2022/05/02 07:56:30;;;;;;;8.18;7.47;;;18.30;70.70;;;;;;4974342;28;92462;-71
2022/05/02 07:58:58;;;;;;;7.50;6.85;;;19.00;68.60;;;;;;4973980;28;92553;-71
2022/05/02 08:01:26;;;;;;;9.23;8.00;;;20.00;65.20;;;;;;4974106;28;93043;-71
2022/05/02 08:03:53;;;;;;;7.47;6.80;;;20.90;61.30;;;;;;4957594;28;93995;-71
2022/05/02 08:06:26;;;;;;;7.63;6.70;;;21.60;58.30;;;;;;4975262;28;92537;-71
2022/05/02 08:09:03;;;;;;;;;;;22.40;55.20;;;;;;4974146;28;92625;-71
2022/05/02 08:11:33;;;;;;;9.10;8.50;;;22.20;52.20;;;;;;4975395;28;95109;-71
2022/05/02 08:14:12;;;;;;;7.68;7.10;;;23.20;52.00;;;;;;4973568;28;94743;-71
2022/05/02 08:17:11;;;;;;;11.15;7.65;;;24.20;48.40;;;;;;4957758;28;92626;-71
2022/05/02 08:19:53;;;;;;;7.00;6.30;;;24.80;46.90;;;;;;4965376;28;95136;-71
2022/05/02 08:28:30;;;;;;;7.25;6.78;;;25.60;42.20;;;;;;4975604;28;92538;-71
2022/05/02 08:31:39;;;;;;;7.15;6.40;;;26.30;39.90;;;;;;4977194;28;92549;-71
2022/05/02 08:34:32;;;;;;;7.68;6.97;;;26.70;37.90;;;;;;4974197;28;94227;-72
2022/05/02 08:37:32;;;;;;;7.38;6.70;;;27.00;36.80;;;;;;4975819;28;92918;-71
2022/05/02 08:40:05;;;;;;;6.65;6.05;;;27.20;36.30;;;;;;4974121;28;91884;-72
2022/05/02 08:43:15;;;;;;;6.18;5.68;;;27.30;36.60;;;;;;4962082;28;92755;-72
2022/05/02 08:46:01;;;;;;;7.45;6.75;;;27.30;34.30;;;;;;4978248;28;93325;-72
2022/05/02 08:52:29;;;;;;;7.25;6.55;;;26.80;34.50;;;;;;4960430;28;92492;-71
2022/05/02 08:55:11;;;;;;;8.70;7.97;;;26.20;35.70;;;;;;4978233;28;92666;-72
2022/05/02 08:57:53;;;;;;;8.60;7.80;;;25.80;35.40;;;;;;4976467;28;95938;-71
2022/05/02 09:01:03;;;;;;;7.80;7.10;;;25.20;37.00;;;;;;4960896;28;93030;-71
2022/05/02 09:03:49;;;;;;;8.70;7.88;;;24.70;37.90;;;;;;4960362;28;92533;-71
2022/05/02 09:06:34;;;;;;;8.43;7.68;;;23.70;39.00;;;;;;4960831;28;92574;-71
2022/05/02 09:09:16;;;;;;;8.50;7.68;;;23.00;40.50;;;;;;4978310;28;92521;-71
2022/05/02 09:11:43;;;;;;;8.70;7.90;;;22.40;41.50;;;;;;4960825;28;92400;-71
2022/05/02 09:15:07;;;;;;;9.00;7.45;;;21.90;42.10;;;;;;4978277;28;92535;-71
2022/05/02 09:18:01;;;;;;;8.50;7.73;;;21.50;43.40;;;;;;4954817;28;94907;-71
2022/05/02 09:20:52;;;;;;;8.95;6.65;;;21.00;43.50;;;;;;4939647;28;95037;-71
2022/05/02 09:23:40;;;;;;;9.43;8.65;;;20.70;44.20;;;;;;4942672;28;98947;-71
2022/05/02 09:26:19;;;;;;;8.95;8.13;;;20.30;45.20;;;;;;4960396;28;92508;-71
2022/05/02 09:28:58;;;;;;;10.50;7.22;;;19.80;46.80;;;;;;4976261;28;92489;-71
2022/05/02 09:31:39;;;;;;;8.55;7.22;;;19.70;47.80;;;;;;4960484;28;93200;-71
2022/05/02 09:34:28;;;;;;;7.03;6.43;;;19.80;48.20;;;;;;4977550;28;93015;-71
2022/05/02 09:37:01;;;;;;;6.60;5.93;;;19.70;46.70;;;;;;4960250;28;91719;-71
2022/05/02 09:39:48;;;;;;;;;;;19.50;45.50;;;;;;4978304;28;92557;-71
2022/05/02 09:42:22;;;;;;;7.88;6.32;;;19.20;47.20;;;;;;4977615;28;93125;-71
2022/05/02 09:51:02;;;;;;;8.32;7.53;;;19.50;47.50;;;;;;4977728;28;92576;-71
2022/05/02 09:53:49;;;;;;;11.23;7.53;;;19.50;47.90;;;;;;4960145;28;92401;-71
2022/05/02 09:56:38;;;;;;;7.95;7.25;;;19.50;49.60;;;;;;4975535;28;102249;-71
2022/05/02 09:59:16;;;;;;;8.70;8.00;;;19.40;47.70;;;;;;4959907;28;92687;-71
2022/05/02 10:01:50;;;;;;;7.80;7.13;;;19.30;47.50;;;;;;4960113;28;92476;-71
2022/05/02 10:04:33;;;;;;;10.02;9.00;;;19.30;47.60;;;;;;4977756;28;92512;-71
2022/05/02 10:07:10;;;;;;;8.00;7.22;;;19.30;48.20;;;;;;4976353;28;99619;-71
2022/05/02 10:09:59;;;;;;;8.35;7.30;;;19.40;47.60;;;;;;4977468;28;92502;-71
2022/05/02 10:12:49;;;;;;;8.00;7.07;;;19.50;48.30;;;;;;4975943;28;94848;-71
2022/05/02 10:15:27;;;;;;;9.88;8.98;;;19.50;48.40;;;;;;4976280;28;94915;-71
2022/05/02 10:18:19;;;;;;;7.97;7.28;;;19.30;48.80;;;;;;4975139;28;95637;-71
2022/05/02 10:21:11;;;;;;;7.72;6.95;;;19.20;48.60;;;;;;4959368;28;92949;-71
2022/05/02 10:23:59;;;;;;;7.65;7.05;;;19.10;50.50;;;;;;4975564;28;92545;-71
2022/05/02 10:26:37;;;;;;;8.80;8.00;;;19.10;50.60;;;;;;4977005;28;92374;-71
2022/05/02 10:29:09;;;;;;;7.80;6.95;;;19.20;49.40;;;;;;4976728;28;92798;-71
2022/05/02 10:31:39;;;;;;;7.50;6.80;;;19.20;48.40;;;;;;4975781;28;91733;-71
2022/05/02 10:34:09;;;;;;;7.60;6.90;;;19.10;48.80;;;;;;4974758;28;104287;-71
2022/05/02 10:36:39;;;;;;;7.40;6.72;;;19.10;49.20;;;;;;4976867;28;93331;-71
2022/05/02 10:39:32;;;;;;;8.15;7.35;;;19.10;48.00;;;;;;4973821;28;94849;-71
2022/05/02 10:42:04;;;;;;;9.85;8.32;;;19.30;47.90;;;;;;4976546;28;92359;-71
2022/05/02 10:44:47;;;;;;;7.82;7.03;;;19.10;47.90;;;;;;4959024;28;92405;-71
2022/05/02 10:47:20;;;;;;;9.07;8.18;;;19.20;48.40;;;;;;4976483;28;93020;-71
2022/05/02 10:49:53;;;;;;;7.85;7.05;;;19.10;47.80;;;;;;4974996;28;96151;-71
2022/05/02 10:52:46;;;;;;;8.35;6.95;;;19.20;47.60;;;;;;4976322;28;92348;-71
2022/05/02 10:55:23;;;;;;;9.00;7.75;;;19.30;48.20;;;;;;4959050;28;92457;-71
2022/05/02 10:57:53;;;;;;;7.15;6.50;;;19.30;48.40;;;;;;4976859;28;92603;-71
2022/05/02 11:00:20;;;;;;;8.57;6.63;;;19.10;48.30;;;;;;4974704;28;93588;-71
2022/05/02 11:03:21;;;;;;;8.18;7.38;;;19.10;48.80;;;;;;4974460;28;99553;-71
2022/05/02 11:05:59;;;;;;;10.45;7.70;;;19.20;48.20;;;;;;4973763;28;94938;-71
2022/05/02 11:08:30;;;;;;;7.55;6.93;;;19.10;48.10;;;;;;4974936;28;93099;-71
2022/05/02 11:11:02;;;;;;;8.35;7.55;;;19.30;48.60;;;;;;4974899;28;92860;-71
2022/05/02 11:13:45;;;;;;;7.90;6.65;;;19.30;47.30;;;;;;4976533;28;92357;-71
2022/05/02 11:16:18;;;;;;;7.28;6.60;;;19.40;48.60;;;;;;4975874;28;92331;-71
2022/05/02 11:22:10;;;;;;;9.32;8.48;;;19.30;46.70;;;;;;4958349;28;95479;-71
2022/05/02 11:25:00;;;;;;;10.65;7.80;;;19.30;46.50;;;;;;4959446;28;91735;-71
2022/05/02 11:27:48;;;;;;;7.10;6.50;;;19.40;47.00;;;;;;4974595;28;92651;-71
2022/05/02 11:30:20;;;;;;;7.57;6.97;;;19.20;46.20;;;;;;4974455;28;97023;-71
2022/05/02 11:33:04;;;;;;;8.02;7.22;;;19.30;45.70;;;;;;4957374;28;94890;-71
2022/05/02 11:35:34;;;;;;;;;;;19.30;45.70;;;;;;4958633;28;92589;-71
2022/05/02 11:38:29;;;;;;;7.68;7.07;;;19.20;45.20;;;;;;4959494;28;92573;-71
2022/05/02 11:41:09;;;;;;;7.05;6.45;;;19.40;46.10;;;;;;4975992;28;93154;-71
2022/05/02 11:43:37;;;;;;;7.32;6.63;;;19.50;45.10;;;;;;4957819;28;95482;-71
2022/05/02 11:46:18;;;;;;;7.40;6.70;;;19.50;45.10;;;;;;4974329;28;92498;-71
2022/05/02 11:49:18;;;;;;;7.18;6.57;;;19.80;45.20;;;;;;4975692;28;92739;-71
2022/05/02 11:51:46;;;;;;;6.80;6.07;;;20.00;44.60;;;;;;4976129;28;92594;-71
2022/05/02 11:54:28;;;;;;;6.70;6.03;;;20.10;43.50;;;;;;4973733;28;93222;-71
2022/05/02 11:57:05;;;;;;;8.68;6.22;;;20.30;42.90;;;;;;4975878;28;92427;-71
2022/05/02 11:59:54;;;;;;;5.82;5.32;;;20.30;42.10;;;;;;4957501;28;94776;-71
2022/05/02 12:02:36;;;;;;;7.72;6.97;;;20.50;43.00;;;;;;4975412;28;93281;-71
2022/05/02 12:05:31;;;;;;;7.32;6.65;;;20.50;42.40;;;;;;4976244;28;93035;-71
2022/05/02 12:08:03;;;;;;;8.52;5.60;;;20.40;41.00;;;;;;4979394;28;92386;-71
2022/05/02 12:10:45;;;;;;;6.28;5.75;;;20.20;40.90;;;;;;4978371;28;92534;-71
2022/05/02 12:13:16;;;;;;;7.47;6.78;;;20.10;42.20;;;;;;4974958;28;93308;-71
2022/05/02 12:16:01;;;;;;;6.55;5.95;;;20.10;42.10;;;;;;4960491;28;93772;-71
2022/05/02 12:18:58;;;;;;;6.18;5.50;;;20.00;41.70;;;;;;4961229;28;91826;-71
2022/05/02 12:21:35;;;;;;;5.75;5.25;;;20.00;41.70;;;;;;4949001;28;92545;-71
2022/05/02 12:24:04;;;;;;;7.40;6.70;;;20.10;42.20;;;;;;4978978;28;93339;-71
2022/05/02 12:26:43;;;;;;;6.72;6.13;;;20.00;41.40;;;;;;4977022;28;94875;-71
2022/05/02 12:29:16;;;;;;;6.03;5.53;;;20.10;40.90;;;;;;4978841;28;92505;-71
2022/05/02 12:31:51;;;;;;;6.97;6.28;;;20.20;41.40;;;;;;4961583;28;92527;-71
2022/05/02 12:34:20;;;;;;;7.00;5.53;;;20.30;40.50;;;;;;4961047;28;92503;-71
2022/05/02 12:36:51;;;;;;;7.45;6.57;;;20.10;40.60;;;;;;4960851;28;93078;-71
2022/05/02 12:39:27;;;;;;;7.75;5.88;;;20.10;41.70;;;;;;4960775;28;92373;-71
2022/05/02 12:42:13;;;;;;;7.78;5.75;;;20.30;41.00;;;;;;4961211;28;92954;-71
2022/05/02 12:45:07;;;;;;;6.80;6.10;;;20.40;42.00;;;;;;4977407;28;95151;-71
2022/05/02 12:48:02;;;;;;;7.90;6.72;;;20.50;43.40;;;;;;4978394;28;92366;-71
2022/05/02 12:50:29;;;;;;;7.05;6.45;;;20.40;42.70;;;;;;4978301;28;92444;-71
2022/05/02 12:53:00;;;;;;;6.70;6.10;;;20.30;42.60;;;;;;4977289;28;94823;-71
2022/05/02 12:55:32;;;;;;;7.82;7.15;;;20.30;43.30;;;;;;4977830;28;93304;-71
2022/05/02 13:00:57;;;;;;;7.88;7.18;;;20.60;43.40;;;;;;4976888;28;92415;-71
2022/05/02 13:03:28;;;;;;;7.72;7.03;;;20.70;43.80;;;;;;4976655;28;92408;-71
2022/05/02 13:06:06;;;;;;;7.53;6.93;;;20.70;43.50;;;;;;4976425;28;96133;-71
2022/05/02 13:08:41;;;;;;;8.82;6.78;;;20.70;43.50;;;;;;4977939;28;92757;-71
2022/05/02 13:11:20;;;;;;;6.38;5.70;;;20.60;43.40;;;;;;4978730;28;91635;-71
2022/05/02 13:13:52;;;;;;;8.80;7.95;;;20.40;44.30;;;;;;4960813;28;92474;-71
2022/05/02 13:16:31;;;;;;;8.30;7.57;;;20.10;44.30;;;;;;4943910;28;93266;-71
2022/05/02 13:19:03;;;;;;;8.98;7.32;;;20.00;44.30;;;;;;4976809;28;94955;-71
2022/05/02 13:21:30;;;;;;;7.97;7.28;;;19.70;45.10;;;;;;4978144;28;93396;-71
2022/05/02 13:24:02;;;;;;;9.57;6.38;;;19.70;44.40;;;;;;4960378;28;92514;-71
2022/05/02 13:26:46;;;;;;;8.82;7.78;;;19.70;44.20;;;;;;4977847;28;93292;-71
2022/05/02 13:29:20;;;;;;;8.18;7.43;;;19.90;45.20;;;;;;4960205;28;92732;-71
2022/05/02 13:31:56;;;;;;;9.35;8.50;;;20.00;44.70;;;;;;4977934;28;92405;-71
2022/05/02 13:34:35;;;;;;;9.75;7.68;;;20.10;43.70;;;;;;4977560;28;92521;-71
2022/05/02 13:37:10;;;;;;;8.80;8.00;;;20.30;44.40;;;;;;4978337;28;92346;-71
2022/05/02 13:40:01;;;;;;;8.40;7.60;;;20.30;45.00;;;;;;4977544;28;92493;-71
2022/05/02 13:42:41;;;;;;;8.30;7.28;;;20.30;44.30;;;;;;4977494;28;93338;-71
2022/05/02 13:45:16;;;;;;;8.20;7.50;;;20.10;44.80;;;;;;4958733;28;94914;-71
2022/05/02 13:47:54;;;;;;;8.32;7.63;;;19.90;44.80;;;;;;4975451;28;95701;-71
2022/05/02 13:50:26;;;;;;;9.23;8.43;;;19.90;44.70;;;;;;4977492;28;93016;-71
2022/05/02 13:53:24;;;;;;;8.55;7.95;;;19.90;44.80;;;;;;4977618;28;92496;-71
2022/05/02 13:56:26;;;;;;;8.07;7.28;;;20.00;45.50;;;;;;4977139;28;92375;-71